Terminal Aerodrome Forecast
Issued by NWS

Home | Current Version | Previous Version | Text Only | Print | Product List | Glossary On
Versions: 1 2 3 4 5 6 7 8 9 10 11 12 13 14 15 16 17 18
232
FTUS46 KLOX 212340
TAFPRB
TAF
KPRB 212340Z 2200/2224 33012G18KT P6SM SKC
     FM220300 31010KT P6SM SKC
     FM220800 VRB03KT P6SM SKC
     FM222000 26006KT P6SM SKC
     FM222300 22011KT P6SM SKC=

USA.gov is the U.S. government's official web portal to all federal, state and local government web resources and services.